createdAt,value
2019-03-08T00:00:22.093Z,6.80
2019-03-08T00:03:01.785Z,6.60
2019-03-08T00:05:39.629Z,6.70
2019-03-08T00:08:17.248Z,6.70
2019-03-08T00:10:55.264Z,6.60
2019-03-08T00:13:33.419Z,6.60
2019-03-08T00:16:11.544Z,6.60
2019-03-08T00:18:49.104Z,6.50
2019-03-08T00:21:27.567Z,6.50
2019-03-08T00:24:05.431Z,6.50
2019-03-08T00:26:44.105Z,6.50
2019-03-08T00:29:21.844Z,6.50
2019-03-08T00:31:59.663Z,6.40
2019-03-08T00:34:37.433Z,6.30
2019-03-08T00:37:15.960Z,6.30
2019-03-08T00:39:54.391Z,6.20
2019-03-08T00:42:32.306Z,6.20
2019-03-08T00:45:10.852Z,6.20
2019-03-08T00:47:48.878Z,6.30
2019-03-08T00:50:26.850Z,6.30
2019-03-08T00:53:05.214Z,6.30
2019-03-08T00:55:43.043Z,6.30
2019-03-08T00:58:21.370Z,6.30
2019-03-08T01:00:59.916Z,6.30
2019-03-08T01:03:38.637Z,6.20
2019-03-08T01:06:16.397Z,6.30
2019-03-08T01:08:54.309Z,6.30
2019-03-08T01:11:32.152Z,6.40
2019-03-08T01:14:10.009Z,6.50
2019-03-08T01:16:47.358Z,6.50
2019-03-08T01:19:25.144Z,6.50
2019-03-08T01:22:02.807Z,6.50
2019-03-08T01:24:40.091Z,6.50
2019-03-08T01:27:17.733Z,6.50
2019-03-08T01:29:55.022Z,6.50
2019-03-08T01:32:33.614Z,6.50
2019-03-08T01:35:10.788Z,6.50
2019-03-08T01:37:48.869Z,6.50
2019-03-08T01:40:27.506Z,6.50
2019-03-08T01:43:05.858Z,6.60
2019-03-08T01:45:43.593Z,6.70
2019-03-08T01:48:21.430Z,6.80
2019-03-08T01:50:58.690Z,6.70
2019-03-08T01:53:35.954Z,6.80
2019-03-08T01:56:13.172Z,6.80
2019-03-08T01:58:50.358Z,6.80
2019-03-08T02:01:28.639Z,6.70
2019-03-08T02:04:05.864Z,6.70
2019-03-08T02:06:43.206Z,6.70
2019-03-08T02:09:20.991Z,6.70
2019-03-08T02:11:59.048Z,6.70
2019-03-08T02:14:36.612Z,6.70
2019-03-08T02:17:13.915Z,6.80
2019-03-08T02:19:51.317Z,6.70
2019-03-08T02:22:28.681Z,6.80
2019-03-08T02:25:06.994Z,6.70
2019-03-08T02:27:44.551Z,6.80
2019-03-08T02:30:22.467Z,6.80
2019-03-08T02:32:59.668Z,6.80
2019-03-08T02:35:36.970Z,6.80
2019-03-08T02:38:25.907Z,6.80
2019-03-08T02:41:03.157Z,6.80
2019-03-08T02:43:40.819Z,6.80
2019-03-08T02:46:18.177Z,6.70
2019-03-08T02:48:55.597Z,6.70
2019-03-08T02:51:32.983Z,6.70
2019-03-08T02:54:10.185Z,6.60
2019-03-08T02:56:47.981Z,6.70
2019-03-08T02:59:25.189Z,6.60
2019-03-08T03:02:03.315Z,6.60
2019-03-08T03:04:41.271Z,6.60
2019-03-08T03:07:18.897Z,6.60
2019-03-08T03:09:56.411Z,6.60
2019-03-08T03:12:33.849Z,6.60
2019-03-08T03:15:11.794Z,6.60
2019-03-08T03:17:49.234Z,6.60
2019-03-08T03:20:26.306Z,6.60
2019-03-08T03:23:03.892Z,6.60
2019-03-08T03:25:41.475Z,6.60
2019-03-08T03:28:18.660Z,6.70
2019-03-08T03:30:56.081Z,6.70
2019-03-08T03:33:33.270Z,6.70
2019-03-08T03:36:11.203Z,6.70
2019-03-08T03:38:49.798Z,6.70
2019-03-08T03:41:27.098Z,6.60
2019-03-08T03:44:05.032Z,6.70
2019-03-08T03:46:42.314Z,6.70
2019-03-08T03:49:20.228Z,6.70
2019-03-08T03:51:57.936Z,6.70
2019-03-08T03:54:35.328Z,6.70
2019-03-08T03:57:12.759Z,6.60
2019-03-08T03:59:51.286Z,6.60
2019-03-08T04:02:28.573Z,6.60
2019-03-08T04:05:06.705Z,6.60
2019-03-08T04:07:43.988Z,6.50
2019-03-08T04:10:21.464Z,6.40
2019-03-08T04:12:59.349Z,6.40
2019-03-08T04:15:36.900Z,6.30
2019-03-08T04:18:14.597Z,6.30
2019-03-08T04:20:52.895Z,6.30
2019-03-08T04:23:30.135Z,6.30
2019-03-08T04:26:07.663Z,6.30
2019-03-08T04:28:57.297Z,6.30
2019-03-08T04:31:34.613Z,6.20
2019-03-08T04:34:12.493Z,6.20
2019-03-08T04:36:49.787Z,6.20
2019-03-08T04:39:27.186Z,6.30
2019-03-08T04:42:04.435Z,6.30
2019-03-08T04:44:42.146Z,6.30
2019-03-08T04:47:19.311Z,6.30
2019-03-08T04:49:56.833Z,6.20
2019-03-08T04:52:34.644Z,6.20
2019-03-08T04:55:13.311Z,6.30
2019-03-08T04:57:50.655Z,6.30
2019-03-08T05:00:28.381Z,6.30
2019-03-08T05:03:06.149Z,6.30
2019-03-08T05:05:43.327Z,6.30
2019-03-08T05:08:20.788Z,6.30
2019-03-08T05:10:58.830Z,6.30
2019-03-08T05:13:36.623Z,6.30
2019-03-08T05:16:26.016Z,6.30
2019-03-08T05:19:03.200Z,6.30
2019-03-08T05:21:40.702Z,6.30
2019-03-08T05:24:19.199Z,6.30
2019-03-08T05:26:57.864Z,6.30
2019-03-08T05:29:35.567Z,6.40
2019-03-08T05:32:13.604Z,6.60
2019-03-08T05:34:51.082Z,6.80
2019-03-08T05:37:28.470Z,6.90
2019-03-08T05:40:06.408Z,7.00
2019-03-08T05:42:44.789Z,7.20
2019-03-08T05:45:22.108Z,7.40
2019-03-08T05:47:59.464Z,7.60
2019-03-08T05:50:37.358Z,7.80
2019-03-08T05:53:14.644Z,7.80
2019-03-08T05:55:53.172Z,8.00
2019-03-08T05:58:30.572Z,8.40
2019-03-08T06:01:08.005Z,8.60
2019-03-08T06:03:47.238Z,8.80
2019-03-08T06:06:26.120Z,8.80
2019-03-08T06:09:04.276Z,8.80
2019-03-08T06:11:41.770Z,8.90
2019-03-08T06:14:19.795Z,9.30
2019-03-08T06:17:09.439Z,9.30
2019-03-08T06:19:46.817Z,9.60
2019-03-08T06:22:24.585Z,9.50
2019-03-08T06:25:02.114Z,9.60
2019-03-08T06:27:39.600Z,9.70
2019-03-08T06:30:17.769Z,9.80
2019-03-08T06:32:57.407Z,9.80
2019-03-08T06:35:37.050Z,10.10
2019-03-08T06:38:14.423Z,10.10
2019-03-08T06:40:51.775Z,10.00
2019-03-08T06:43:29.071Z,10.10
2019-03-08T06:46:06.448Z,10.50
2019-03-08T06:48:44.196Z,10.60
2019-03-08T06:51:21.600Z,10.70
2019-03-08T06:53:59.004Z,10.70
2019-03-08T06:56:36.578Z,10.90
2019-03-08T06:59:28.750Z,10.90
2019-03-08T07:02:05.947Z,11.40
2019-03-08T07:04:43.794Z,11.20
2019-03-08T07:07:22.460Z,11.60
2019-03-08T07:09:59.700Z,11.80
2019-03-08T07:12:37.393Z,11.80
2019-03-08T07:15:15.674Z,11.80
2019-03-08T07:17:54.210Z,11.00
2019-03-08T07:20:39.348Z,11.60
2019-03-08T07:23:34.436Z,12.40
2019-03-08T07:26:44.044Z,12.30
2019-03-08T07:29:53.032Z,12.40
2019-03-08T07:32:36.143Z,12.80
2019-03-08T07:35:35.773Z,12.20
2019-03-08T07:38:27.593Z,12.70
2019-03-08T07:41:39.819Z,12.80
2019-03-08T07:44:36.931Z,12.50
2019-03-08T07:47:32.717Z,12.70
2019-03-08T07:50:41.123Z,12.30
2019-03-08T07:53:35.352Z,11.80
2019-03-08T07:56:23.957Z,11.50
2019-03-08T07:59:15.446Z,11.40
2019-03-08T08:02:08.417Z,12.20
2019-03-08T08:05:17.978Z,12.00
2019-03-08T08:08:23.252Z,11.90
2019-03-08T08:11:19.634Z,11.00
2019-03-08T08:14:10.352Z,11.30
2019-03-08T08:17:05.337Z,10.80
2019-03-08T08:20:16.442Z,10.60
2019-03-08T08:23:14.485Z,11.50
2019-03-08T08:26:09.615Z,11.40
2019-03-08T08:29:18.586Z,10.70
2019-03-08T08:32:14.542Z,10.20
2019-03-08T08:35:07.969Z,9.90
2019-03-08T08:38:04.573Z,9.80
2019-03-08T08:41:10.005Z,10.10
2019-03-08T08:43:57.640Z,10.30
2019-03-08T08:46:54.224Z,10.00
2019-03-08T08:49:54.635Z,9.80
2019-03-08T08:52:37.142Z,9.50
2019-03-08T08:55:32.370Z,9.20
2019-03-08T08:58:43.643Z,9.10
2019-03-08T09:01:38.400Z,8.90
2019-03-08T09:04:22.947Z,8.80
2019-03-08T09:07:06.802Z,8.80
2019-03-08T09:10:03.433Z,8.70
2019-03-08T09:13:04.114Z,8.60
2019-03-08T09:15:49.253Z,8.50
2019-03-08T09:18:43.950Z,8.40
2019-03-08T09:21:28.152Z,8.40
2019-03-08T09:24:11.183Z,8.40
2019-03-08T09:26:59.776Z,8.30
2019-03-08T09:29:47.741Z,8.30
2019-03-08T09:32:39.418Z,8.40
2019-03-08T09:35:37.024Z,8.40
2019-03-08T09:38:24.083Z,8.40
2019-03-08T09:41:18.442Z,8.40
2019-03-08T09:44:18.232Z,8.40
2019-03-08T09:47:13.752Z,8.50
2019-03-08T09:50:10.076Z,8.70
2019-03-08T09:53:06.473Z,8.80
2019-03-08T09:56:02.333Z,9.00
2019-03-08T09:59:01.393Z,9.10
2019-03-08T10:02:16.049Z,9.30
2019-03-08T10:05:09.507Z,9.50
2019-03-08T10:08:10.704Z,9.60
2019-03-08T10:11:07.208Z,10.10
2019-03-08T10:14:08.332Z,10.20
2019-03-08T10:17:02.930Z,10.50
2019-03-08T10:19:59.156Z,10.30
2019-03-08T10:22:54.135Z,10.30
2019-03-08T10:25:54.052Z,10.10
2019-03-08T10:28:50.515Z,9.90
2019-03-08T10:31:35.118Z,9.70
2019-03-08T10:34:30.254Z,9.30
2019-03-08T10:37:35.258Z,9.00
2019-03-08T10:40:28.444Z,8.80
2019-03-08T10:43:22.607Z,8.60
2019-03-08T10:46:20.664Z,8.70
2019-03-08T10:49:20.965Z,8.80
2019-03-08T10:52:23.254Z,9.00
2019-03-08T10:55:13.617Z,9.30
2019-03-08T10:58:10.021Z,9.50
2019-03-08T11:01:09.127Z,9.70
2019-03-08T11:04:10.785Z,9.90
2019-03-08T11:06:55.260Z,9.80
2019-03-08T11:09:54.851Z,10.00
2019-03-08T11:12:41.914Z,9.70
2019-03-08T11:15:53.646Z,9.60
2019-03-08T11:19:08.526Z,9.60
2019-03-08T11:22:02.328Z,9.50
2019-03-08T11:24:46.384Z,9.70
2019-03-08T11:27:46.010Z,9.70
2019-03-08T11:30:55.388Z,9.80
2019-03-08T11:33:56.895Z,10.10
2019-03-08T11:36:47.049Z,10.40
2019-03-08T11:39:38.939Z,10.20
2019-03-08T11:42:40.340Z,10.10
2019-03-08T11:45:23.932Z,10.00
2019-03-08T11:48:32.425Z,9.90
2019-03-08T11:51:27.183Z,9.60
2019-03-08T11:54:20.103Z,9.30
2019-03-08T11:57:14.905Z,9.10
2019-03-08T12:00:20.270Z,9.20
2019-03-08T12:03:15.475Z,9.10
2019-03-08T12:06:05.028Z,9.00
2019-03-08T12:09:02.280Z,9.00
2019-03-08T12:12:09.323Z,9.00
2019-03-08T12:15:03.449Z,9.00
2019-03-08T12:18:02.130Z,9.10
2019-03-08T12:20:57.166Z,9.00
2019-03-08T12:24:06.063Z,8.90
2019-03-08T12:27:09.353Z,8.90
2019-03-08T12:30:05.478Z,8.90
2019-03-08T12:33:01.426Z,9.00
2019-03-08T12:35:56.936Z,9.00
2019-03-08T12:38:42.353Z,8.90
2019-03-08T12:41:27.968Z,8.90
2019-03-08T12:44:12.400Z,8.90
2019-03-08T12:47:08.530Z,9.00
2019-03-08T12:50:11.021Z,9.00
2019-03-08T12:53:25.479Z,9.00
2019-03-08T12:56:08.658Z,8.90
2019-03-08T12:59:11.804Z,8.70
2019-03-08T13:02:11.337Z,8.50
2019-03-08T13:05:04.487Z,8.30
2019-03-08T13:07:51.898Z,7.90
2019-03-08T13:10:29.175Z,7.70
2019-03-08T13:13:06.944Z,7.60
2019-03-08T13:15:44.437Z,7.60
2019-03-08T13:18:22.430Z,7.30
2019-03-08T13:20:59.890Z,7.30
2019-03-08T13:23:38.123Z,7.40
2019-03-08T13:26:17.043Z,7.50
2019-03-08T13:28:54.640Z,8.00
2019-03-08T13:31:32.133Z,8.50
2019-03-08T13:34:09.640Z,8.80
2019-03-08T13:36:47.338Z,8.60
2019-03-08T13:39:24.788Z,8.40
2019-03-08T13:42:02.301Z,8.20
2019-03-08T13:44:39.647Z,8.10
2019-03-08T13:47:17.486Z,8.20
2019-03-08T13:49:54.700Z,8.00
2019-03-08T13:52:32.140Z,7.90
2019-03-08T13:55:10.736Z,8.00
2019-03-08T13:57:48.052Z,7.90
2019-03-08T14:00:37.523Z,8.00
2019-03-08T14:03:14.825Z,8.10
2019-03-08T14:05:52.155Z,8.70
2019-03-08T14:08:29.648Z,8.70
2019-03-08T14:11:07.100Z,8.60
2019-03-08T14:13:44.792Z,9.30
2019-03-08T14:16:22.286Z,9.70
2019-03-08T14:18:59.644Z,10.20
2019-03-08T14:21:36.829Z,9.80
2019-03-08T14:24:14.054Z,8.50
2019-03-08T14:26:51.515Z,8.20
2019-03-08T14:29:29.192Z,8.00
2019-03-08T14:32:09.606Z,7.90
2019-03-08T14:34:49.595Z,7.90
2019-03-08T14:37:26.037Z,8.10
2019-03-08T14:40:08.681Z,8.00
2019-03-08T14:42:59.994Z,7.70
2019-03-08T14:45:44.650Z,7.70
2019-03-08T14:48:25.181Z,7.70
2019-03-08T14:51:02.637Z,7.60
2019-03-08T14:53:40.077Z,7.60
2019-03-08T14:56:18.054Z,7.60
2019-03-08T14:58:56.178Z,7.60
2019-03-08T15:01:33.883Z,7.70
2019-03-08T15:04:11.892Z,7.60
2019-03-08T15:06:53.349Z,7.50
2019-03-08T15:09:30.690Z,7.30
2019-03-08T15:12:16.392Z,7.30
2019-03-08T15:14:47.206Z,7.30
2019-03-08T15:17:24.700Z,7.40
2019-03-08T15:20:02.031Z,7.90
2019-03-08T15:22:39.503Z,7.90
2019-03-08T15:25:17.621Z,7.70
2019-03-08T15:27:55.397Z,7.70
2019-03-08T15:30:32.736Z,7.80
2019-03-08T15:33:10.898Z,8.00
2019-03-08T15:35:48.554Z,8.00
2019-03-08T15:38:26.070Z,7.80
2019-03-08T15:41:03.694Z,7.80
2019-03-08T15:43:40.984Z,7.80
2019-03-08T15:46:22.006Z,7.50
2019-03-08T15:48:57.582Z,7.50
2019-03-08T15:51:34.963Z,7.40
2019-03-08T15:54:12.394Z,7.20
2019-03-08T15:56:50.934Z,7.10
2019-03-08T15:59:28.487Z,7.00
2019-03-08T16:02:16.960Z,6.90
2019-03-08T16:04:55.072Z,6.90
2019-03-08T16:07:32.826Z,6.80
2019-03-08T16:10:22.832Z,6.80
2019-03-08T16:13:02.599Z,6.70
2019-03-08T16:15:39.485Z,6.60
2019-03-08T16:18:17.891Z,6.60
2019-03-08T16:20:57.441Z,6.50
2019-03-08T16:23:34.701Z,6.50
2019-03-08T16:26:12.339Z,6.50
2019-03-08T16:28:51.492Z,6.50
2019-03-08T16:31:43.588Z,6.50
2019-03-08T16:34:21.495Z,6.40
2019-03-08T16:37:03.590Z,6.40
2019-03-08T16:40:02.375Z,6.40
2019-03-08T16:42:51.798Z,6.40
2019-03-08T16:45:54.831Z,6.30
2019-03-08T16:48:35.960Z,6.50
2019-03-08T16:51:38.211Z,6.50
2019-03-08T16:54:22.832Z,6.50
2019-03-08T16:57:17.736Z,6.50
2019-03-08T17:00:11.260Z,6.60
2019-03-08T17:03:13.874Z,6.50
2019-03-08T17:05:58.141Z,6.50
2019-03-08T17:08:42.889Z,6.50
2019-03-08T17:11:38.847Z,6.50
2019-03-08T17:14:28.753Z,6.40
2019-03-08T17:17:15.407Z,6.40
2019-03-08T17:20:21.823Z,6.40
2019-03-08T17:23:33.771Z,6.40
2019-03-08T17:26:17.884Z,6.40
2019-03-08T17:29:06.544Z,6.40
2019-03-08T17:31:49.129Z,6.40
2019-03-08T17:34:38.021Z,6.40
2019-03-08T17:37:36.374Z,6.40
2019-03-08T17:40:31.930Z,6.30
2019-03-08T17:43:27.051Z,6.30
2019-03-08T17:46:22.150Z,6.20
2019-03-08T17:49:06.009Z,6.20
2019-03-08T17:52:05.437Z,6.20
2019-03-08T17:55:16.219Z,6.20
2019-03-08T17:58:09.966Z,6.10
2019-03-08T18:01:09.539Z,6.10
2019-03-08T18:04:24.187Z,6.10
2019-03-08T18:07:38.750Z,6.10
2019-03-08T18:10:34.692Z,6.10
2019-03-08T18:13:22.698Z,6.00
2019-03-08T18:16:18.169Z,6.00
2019-03-08T18:19:18.127Z,5.90
2019-03-08T18:22:15.883Z,5.90
2019-03-08T18:25:11.244Z,5.90
2019-03-08T18:40:04.735Z,5.80
2019-03-08T18:43:13.486Z,5.80
2019-03-08T18:46:01.306Z,5.90
2019-03-08T18:48:55.035Z,5.80
2019-03-08T18:52:06.731Z,5.80
2019-03-08T18:54:54.689Z,5.80
2019-03-08T18:57:42.291Z,5.70
2019-03-08T19:00:44.981Z,5.70
2019-03-08T19:03:57.184Z,5.80
2019-03-08T19:07:08.628Z,5.80
2019-03-08T19:09:55.564Z,5.80
2019-03-08T19:12:54.772Z,5.80
2019-03-08T19:15:54.080Z,5.70
2019-03-08T19:18:42.378Z,5.70
2019-03-08T19:21:39.925Z,5.70
2019-03-08T19:24:36.323Z,5.70
2019-03-08T19:27:46.020Z,5.70
2019-03-08T19:30:57.556Z,5.80
2019-03-08T19:33:45.094Z,5.70
2019-03-08T19:36:50.184Z,5.70
2019-03-08T19:39:48.625Z,5.60
2019-03-08T19:42:44.973Z,5.60
2019-03-08T19:45:40.004Z,5.60
2019-03-08T19:48:51.661Z,5.60
2019-03-08T19:51:48.249Z,5.60
2019-03-08T19:54:48.187Z,5.60
2019-03-08T19:57:51.779Z,5.60
2019-03-08T20:00:54.601Z,5.60
2019-03-08T20:03:57.168Z,5.60
2019-03-08T20:06:49.464Z,5.50
2019-03-08T20:09:43.787Z,5.50
2019-03-08T20:12:49.695Z,5.50
2019-03-08T20:15:39.327Z,5.60
2019-03-08T20:18:32.404Z,5.60
2019-03-08T20:21:37.709Z,5.50
2019-03-08T20:24:25.893Z,5.50
2019-03-08T20:27:22.560Z,5.50
2019-03-08T20:30:24.991Z,5.40
2019-03-08T20:33:19.685Z,5.40
2019-03-08T20:36:30.317Z,5.40
2019-03-08T20:39:30.463Z,5.40
2019-03-08T20:42:25.475Z,5.40
2019-03-08T20:45:26.523Z,5.50
2019-03-08T20:48:04.024Z,5.40
2019-03-08T20:50:41.597Z,5.40
2019-03-08T20:53:18.710Z,5.50
2019-03-08T20:55:56.268Z,5.40
2019-03-08T20:58:33.675Z,5.40
2019-03-08T21:01:12.426Z,5.50
2019-03-08T21:03:51.242Z,5.60
2019-03-08T21:06:28.565Z,5.60
2019-03-08T21:09:08.599Z,5.60
2019-03-08T21:11:46.481Z,5.60
2019-03-08T21:14:23.642Z,5.60
2019-03-08T21:17:01.082Z,5.60
2019-03-08T21:19:38.393Z,5.60
2019-03-08T21:22:16.981Z,5.60
2019-03-08T21:24:55.570Z,5.60
2019-03-08T21:27:33.602Z,5.60
2019-03-08T21:30:14.843Z,5.70
2019-03-08T21:32:53.169Z,5.70
2019-03-08T21:35:30.580Z,5.70
2019-03-08T21:38:08.098Z,5.70
2019-03-08T21:40:46.050Z,5.70
2019-03-08T21:43:23.361Z,5.70
2019-03-08T21:46:00.746Z,5.70
2019-03-08T21:48:38.186Z,5.70
2019-03-08T21:51:15.726Z,5.60
2019-03-08T21:53:53.130Z,5.60
2019-03-08T21:56:30.449Z,5.60
2019-03-08T21:59:08.288Z,5.60
2019-03-08T22:01:45.614Z,5.50
2019-03-08T22:04:48.403Z,5.50
2019-03-08T22:07:26.101Z,5.50
2019-03-08T22:10:19.985Z,5.50
2019-03-08T22:12:57.470Z,5.60
2019-03-08T22:15:34.731Z,5.60
2019-03-08T22:18:12.047Z,5.50
2019-03-08T22:20:49.378Z,5.40
2019-03-08T22:23:26.517Z,5.40
2019-03-08T22:26:03.977Z,5.30
2019-03-08T22:28:41.293Z,5.30
2019-03-08T22:31:18.631Z,5.20
2019-03-08T22:33:55.911Z,5.20
2019-03-08T22:36:33.569Z,5.20
2019-03-08T22:39:10.965Z,5.20
2019-03-08T22:41:49.578Z,5.20
2019-03-08T22:44:27.151Z,5.20
2019-03-08T22:47:05.385Z,5.10
2019-03-08T22:49:44.223Z,5.20
2019-03-08T22:52:21.436Z,5.20
2019-03-08T22:54:58.876Z,5.20
2019-03-08T22:57:36.114Z,5.10
2019-03-08T23:00:34.941Z,5.10
2019-03-08T23:03:13.978Z,5.10
2019-03-08T23:05:51.432Z,5.00
2019-03-08T23:08:28.668Z,5.00
2019-03-08T23:11:06.817Z,5.10
2019-03-08T23:13:44.022Z,5.10
2019-03-08T23:16:33.686Z,5.20
2019-03-08T23:19:11.236Z,5.10
2019-03-08T23:21:48.668Z,5.10
2019-03-08T23:24:26.118Z,5.10
2019-03-08T23:27:27.312Z,5.10
2019-03-08T23:30:12.843Z,5.20
2019-03-08T23:32:52.663Z,5.10
2019-03-08T23:35:29.839Z,5.00
2019-03-08T23:38:07.430Z,4.90
2019-03-08T23:40:44.744Z,4.90
2019-03-08T23:43:22.619Z,5.00
2019-03-08T23:46:00.755Z,5.00
2019-03-08T23:48:38.559Z,5.00
2019-03-08T23:51:15.885Z,5.00
2019-03-08T23:53:55.590Z,4.90
2019-03-08T23:56:32.677Z,4.90
2019-03-08T23:59:10.605Z,4.90
